sensor_id;sensor_type;location;lat;lon;timestamp;pressure;altitude;pressure_sealevel;temperature;humidity
19096;BME280;9680;52.520;13.332;2022-08-04T00:00:12;101150.41;;;25.41;49.16
19096;BME280;9680;52.520;13.332;2022-08-04T00:10:54;101160.25;;;25.30;48.89
19096;BME280;9680;52.520;13.332;2022-08-04T00:13:26;101154.09;;;25.30;48.61
19096;BME280;9680;52.520;13.332;2022-08-04T00:15:56;101157.75;;;25.29;48.35
19096;BME280;9680;52.520;13.332;2022-08-04T00:18:26;101147.09;;;25.29;47.91
19096;BME280;9680;52.520;13.332;2022-08-04T00:20:56;101148.78;;;25.30;48.11
19096;BME280;9680;52.520;13.332;2022-08-04T00:23:24;101148.91;;;25.28;48.32
19096;BME280;9680;52.520;13.332;2022-08-04T00:25:51;101142.75;;;25.28;48.48
19096;BME280;9680;52.520;13.332;2022-08-04T00:28:18;101147.22;;;25.27;48.35
19096;BME280;9680;52.520;13.332;2022-08-04T00:30:43;101147.38;;;25.26;48.83
19096;BME280;9680;52.520;13.332;2022-08-04T00:33:09;101149.34;;;25.24;49.18
19096;BME280;9680;52.520;13.332;2022-08-04T00:35:37;101146.97;;;25.21;49.40
19096;BME280;9680;52.520;13.332;2022-08-04T00:38:03;101145.44;;;25.18;49.32
19096;BME280;9680;52.520;13.332;2022-08-04T00:43:22;101147.00;;;25.11;49.64
19096;BME280;9680;52.520;13.332;2022-08-04T00:46:13;101147.13;;;25.09;49.75
19096;BME280;9680;52.520;13.332;2022-08-04T00:51:25;101143.75;;;25.07;49.67
19096;BME280;9680;52.520;13.332;2022-08-04T00:54:11;101153.03;;;25.03;49.69
19096;BME280;9680;52.520;13.332;2022-08-04T00:59:34;101151.50;;;25.00;50.21
19096;BME280;9680;52.520;13.332;2022-08-04T01:02:23;101149.25;;;24.96;50.54
19096;BME280;9680;52.520;13.332;2022-08-04T01:05:06;101148.72;;;24.92;50.25
19096;BME280;9680;52.520;13.332;2022-08-04T01:08:11;101146.47;;;24.88;50.17
19096;BME280;9680;52.520;13.332;2022-08-04T01:16:15;101141.72;;;24.81;49.25
19096;BME280;9680;52.520;13.332;2022-08-04T01:19:01;101145.66;;;24.77;49.82
19096;BME280;9680;52.520;13.332;2022-08-04T01:27:01;101134.25;;;24.65;50.38
19096;BME280;9680;52.520;13.332;2022-08-04T01:29:39;101139.88;;;24.62;50.38
19096;BME280;9680;52.520;13.332;2022-08-04T01:32:12;101138.47;;;24.58;50.55
19096;BME280;9680;52.520;13.332;2022-08-04T01:34:47;101135.00;;;24.57;50.16
19096;BME280;9680;52.520;13.332;2022-08-04T01:40:00;101148.72;;;24.53;49.98
19096;BME280;9680;52.520;13.332;2022-08-04T01:42:28;101145.34;;;24.51;50.38
19096;BME280;9680;52.520;13.332;2022-08-04T01:44:57;101141.28;;;24.47;50.60
19096;BME280;9680;52.520;13.332;2022-08-04T01:47:27;101145.91;;;24.45;50.36
19096;BME280;9680;52.520;13.332;2022-08-04T01:49:54;101147.72;;;24.44;50.27
19096;BME280;9680;52.520;13.332;2022-08-04T01:52:26;101142.38;;;24.44;50.10
19096;BME280;9680;52.520;13.332;2022-08-04T01:54:52;101139.88;;;24.42;50.40
19096;BME280;9680;52.520;13.332;2022-08-04T01:57:22;101149.97;;;24.39;50.73
19096;BME280;9680;52.520;13.332;2022-08-04T01:59:50;101139.75;;;24.34;51.34
19096;BME280;9680;52.520;13.332;2022-08-04T02:02:16;101150.66;;;24.31;51.21
19096;BME280;9680;52.520;13.332;2022-08-04T02:04:42;101142.25;;;24.26;51.31
19096;BME280;9680;52.520;13.332;2022-08-04T02:07:22;101143.53;;;24.22;51.33
19096;BME280;9680;52.520;13.332;2022-08-04T02:10:06;101148.13;;;24.20;51.58
19096;BME280;9680;52.520;13.332;2022-08-04T02:13:10;101151.19;;;24.15;51.50
19096;BME280;9680;52.520;13.332;2022-08-04T02:15:50;101143.50;;;24.12;51.19
19096;BME280;9680;52.520;13.332;2022-08-04T02:18:23;101140.97;;;24.10;50.96
19096;BME280;9680;52.520;13.332;2022-08-04T02:20:56;101136.63;;;24.09;51.34
19096;BME280;9680;52.520;13.332;2022-08-04T02:23:38;101133.13;;;24.09;51.47
19096;BME280;9680;52.520;13.332;2022-08-04T02:26:12;101136.63;;;24.09;51.42
19096;BME280;9680;52.520;13.332;2022-08-04T02:31:41;101132.13;;;24.00;51.92
19096;BME280;9680;52.520;13.332;2022-08-04T02:34:23;101132.97;;;24.01;52.07
19096;BME280;9680;52.520;13.332;2022-08-04T02:36:51;101125.81;;;24.01;52.04
19096;BME280;9680;52.520;13.332;2022-08-04T02:39:19;101127.50;;;24.02;52.08
19096;BME280;9680;52.520;13.332;2022-08-04T02:41:47;101124.00;;;24.02;52.36
19096;BME280;9680;52.520;13.332;2022-08-04T02:44:24;101124.00;;;24.02;52.24
19096;BME280;9680;52.520;13.332;2022-08-04T02:46:51;101125.81;;;24.01;52.06
19096;BME280;9680;52.520;13.332;2022-08-04T02:49:20;101117.00;;;24.01;51.74
19096;BME280;9680;52.520;13.332;2022-08-04T02:51:49;101118.94;;;23.98;51.70
19096;BME280;9680;52.520;13.332;2022-08-04T02:54:17;101118.81;;;24.00;51.51
19096;BME280;9680;52.520;13.332;2022-08-04T02:56:44;101117.38;;;23.96;51.69
19096;BME280;9680;52.520;13.332;2022-08-04T02:59:11;101115.84;;;23.93;51.59
19096;BME280;9680;52.520;13.332;2022-08-04T03:01:38;101115.44;;;23.88;51.96
19096;BME280;9680;52.520;13.332;2022-08-04T03:09:50;101119.56;;;23.71;52.34
19096;BME280;9680;52.520;13.332;2022-08-04T03:24:49;101123.22;;;23.70;52.66
19096;BME280;9680;52.520;13.332;2022-08-04T03:41:09;101124.78;;;23.51;52.80
19096;BME280;9680;52.520;13.332;2022-08-04T03:47:14;101118.78;;;23.49;52.88
19096;BME280;9680;52.520;13.332;2022-08-04T04:18:43;101120.47;;;23.50;53.10
19096;BME280;9680;52.520;13.332;2022-08-04T04:21:27;101121.44;;;23.49;53.09
19096;BME280;9680;52.520;13.332;2022-08-04T04:24:32;101114.16;;;23.51;53.27
19096;BME280;9680;52.520;13.332;2022-08-04T04:27:08;101117.81;;;23.50;53.26
19096;BME280;9680;52.520;13.332;2022-08-04T04:35:20;101123.69;;;23.54;53.12
19096;BME280;9680;52.520;13.332;2022-08-04T04:38:21;101127.06;;;23.56;53.03
19096;BME280;9680;52.520;13.332;2022-08-04T04:41:04;101124.28;;;23.58;53.00
19096;BME280;9680;52.520;13.332;2022-08-04T04:44:06;101123.31;;;23.59;53.29
19096;BME280;9680;52.520;13.332;2022-08-04T04:46:47;101130.88;;;23.63;53.23
19096;BME280;9680;52.520;13.332;2022-08-04T04:49:36;101130.75;;;23.65;53.16
19096;BME280;9680;52.520;13.332;2022-08-04T04:52:20;101130.31;;;23.69;53.41
19096;BME280;9680;52.520;13.332;2022-08-04T04:55:18;101128.53;;;23.70;53.50
19096;BME280;9680;52.520;13.332;2022-08-04T04:57:47;101136.22;;;23.73;53.11
19096;BME280;9680;52.520;13.332;2022-08-04T05:00:15;101132.44;;;23.76;53.10
19096;BME280;9680;52.520;13.332;2022-08-04T05:13:44;101130.25;;;23.91;53.31
19096;BME280;9680;52.520;13.332;2022-08-04T05:18:47;101124.13;;;24.00;53.17
19096;BME280;9680;52.520;13.332;2022-08-04T05:21:40;101130.88;;;24.04;53.20
19096;BME280;9680;52.520;13.332;2022-08-04T05:24:09;101132.16;;;24.10;52.83
19096;BME280;9680;52.520;13.332;2022-08-04T05:26:43;101138.03;;;24.13;52.93
19096;BME280;9680;52.520;13.332;2022-08-04T05:29:12;101135.78;;;24.19;52.93
19096;BME280;9680;52.520;13.332;2022-08-04T05:31:45;101133.56;;;24.24;52.77
19096;BME280;9680;52.520;13.332;2022-08-04T05:34:28;101130.34;;;24.30;52.56
19096;BME280;9680;52.520;13.332;2022-08-04T05:36:57;101130.63;;;24.37;52.36
19096;BME280;9680;52.520;13.332;2022-08-04T05:39:27;101137.22;;;24.42;52.33
19096;BME280;9680;52.520;13.332;2022-08-04T05:41:54;101138.34;;;24.50;52.25
19096;BME280;9680;52.520;13.332;2022-08-04T05:44:22;101140.44;;;24.56;51.84
19096;BME280;9680;52.520;13.332;2022-08-04T05:46:51;101135.41;;;24.63;51.95
19096;BME280;9680;52.520;13.332;2022-08-04T05:49:18;101133.97;;;24.68;51.58
19096;BME280;9680;52.520;13.332;2022-08-04T05:51:44;101134.31;;;24.75;51.10
19096;BME280;9680;52.520;13.332;2022-08-04T05:54:12;101137.22;;;24.82;51.38
19096;BME280;9680;52.520;13.332;2022-08-04T05:56:39;101136.38;;;24.91;51.18
19096;BME280;9680;52.520;13.332;2022-08-04T05:59:05;101132.16;;;24.98;50.84
19096;BME280;9680;52.520;13.332;2022-08-04T06:01:33;101142.09;;;25.06;50.42
19096;BME280;9680;52.520;13.332;2022-08-04T06:04:01;101138.00;;;25.12;50.70
19096;BME280;9680;52.520;13.332;2022-08-04T06:06:28;101136.44;;;25.19;50.34
19096;BME280;9680;52.520;13.332;2022-08-04T06:08:55;101134.88;;;25.26;49.81
19096;BME280;9680;52.520;13.332;2022-08-04T06:11:21;101139.34;;;25.36;49.86
19096;BME280;9680;52.520;13.332;2022-08-04T06:13:52;101142.28;;;25.42;50.14
19096;BME280;9680;52.520;13.332;2022-08-04T06:16:21;101137.91;;;25.51;49.69
19096;BME280;9680;52.520;13.332;2022-08-04T06:18:49;101132.81;;;25.58;49.57
19096;BME280;9680;52.520;13.332;2022-08-04T06:21:19;101136.28;;;25.68;49.31
19096;BME280;9680;52.520;13.332;2022-08-04T06:23:47;101142.41;;;25.79;49.04
19096;BME280;9680;52.520;13.332;2022-08-04T06:26:14;101143.66;;;25.84;49.01
19096;BME280;9680;52.520;13.332;2022-08-04T06:28:49;101140.06;;;25.94;48.31
19096;BME280;9680;52.520;13.332;2022-08-04T06:31:17;101137.34;;;26.03;47.95
19096;BME280;9680;52.520;13.332;2022-08-04T06:34:03;101139.13;;;26.13;47.94
19096;BME280;9680;52.520;13.332;2022-08-04T06:36:30;101141.91;;;26.21;47.63
19096;BME280;9680;52.520;13.332;2022-08-04T06:38:58;101141.84;;;26.31;47.14
19096;BME280;9680;52.520;13.332;2022-08-04T06:41:25;101139.06;;;26.41;46.47
19096;BME280;9680;52.520;13.332;2022-08-04T06:43:51;101140.81;;;26.50;46.25
19096;BME280;9680;52.520;13.332;2022-08-04T06:46:18;101137.94;;;26.62;46.57
19096;BME280;9680;52.520;13.332;2022-08-04T06:48:45;101143.16;;;26.71;46.06
19096;BME280;9680;52.520;13.332;2022-08-04T06:51:12;101138.72;;;26.80;45.55
19096;BME280;9680;52.520;13.332;2022-08-04T06:53:39;101138.69;;;26.90;44.99
19096;BME280;9680;52.520;13.332;2022-08-04T06:56:04;101137.56;;;27.01;45.64
19096;BME280;9680;52.520;13.332;2022-08-04T06:58:32;101136.47;;;27.12;45.22
19096;BME280;9680;52.520;13.332;2022-08-04T07:00:58;101134.53;;;27.22;44.58
19096;BME280;9680;52.520;13.332;2022-08-04T07:03:27;101128.22;;;27.31;44.47
19096;BME280;9680;52.520;13.332;2022-08-04T07:05:53;101134.28;;;27.42;44.41
19096;BME280;9680;52.520;13.332;2022-08-04T07:08:20;101128.03;;;27.51;44.08
19096;BME280;9680;52.520;13.332;2022-08-04T07:10:46;101121.53;;;27.62;43.61
19096;BME280;9680;52.520;13.332;2022-08-04T07:13:15;101130.09;;;27.74;43.54
19096;BME280;9680;52.520;13.332;2022-08-04T07:15:44;101130.28;;;27.81;43.11
19096;BME280;9680;52.520;13.332;2022-08-04T07:18:10;101125.63;;;27.91;43.15
19096;BME280;9680;52.520;13.332;2022-08-04T07:20:43;101121.97;;;28.00;43.00
19096;BME280;9680;52.520;13.332;2022-08-04T07:23:10;101123.81;;;28.08;42.65
19096;BME280;9680;52.520;13.332;2022-08-04T07:25:38;101127.38;;;28.17;42.75
19096;BME280;9680;52.520;13.332;2022-08-04T07:28:04;101126.72;;;28.23;41.69
19096;BME280;9680;52.520;13.332;2022-08-04T07:30:30;101124.91;;;28.32;41.22
19096;BME280;9680;52.520;13.332;2022-08-04T07:32:57;101120.03;;;28.44;41.11
19096;BME280;9680;52.520;13.332;2022-08-04T07:35:24;101120.88;;;28.53;41.57
19096;BME280;9680;52.520;13.332;2022-08-04T07:37:51;101116.50;;;28.60;41.49
19096;BME280;9680;52.520;13.332;2022-08-04T07:40:17;101113.00;;;28.68;41.05
19096;BME280;9680;52.520;13.332;2022-08-04T07:42:43;101118.34;;;28.76;40.83
19096;BME280;9680;52.520;13.332;2022-08-04T07:45:09;101117.69;;;28.82;40.52
19096;BME280;9680;52.520;13.332;2022-08-04T07:47:36;101117.88;;;28.89;40.11
19096;BME280;9680;52.520;13.332;2022-08-04T07:50:02;101118.66;;;28.98;40.30
19096;BME280;9680;52.520;13.332;2022-08-04T07:52:28;101119.50;;;29.06;40.40
19096;BME280;9680;52.520;13.332;2022-08-04T07:54:54;101114.25;;;29.13;39.69
19096;BME280;9680;52.520;13.332;2022-08-04T07:57:20;101111.59;;;29.21;39.52
19096;BME280;9680;52.520;13.332;2022-08-04T07:59:47;101110.34;;;29.32;38.91
19096;BME280;9680;52.520;13.332;2022-08-04T08:02:13;101108.84;;;29.38;38.26
19096;BME280;9680;52.520;13.332;2022-08-04T08:04:40;101109.66;;;29.47;38.21
19096;BME280;9680;52.520;13.332;2022-08-04T08:07:07;101107.78;;;29.56;38.62
19096;BME280;9680;52.520;13.332;2022-08-04T08:09:33;101105.91;;;29.64;38.31
19096;BME280;9680;52.520;13.332;2022-08-04T08:11:58;101104.19;;;29.72;38.17
19096;BME280;9680;52.520;13.332;2022-08-04T08:14:27;101106.81;;;29.80;37.55
19096;BME280;9680;52.520;13.332;2022-08-04T08:16:53;101112.13;;;29.88;37.83
19096;BME280;9680;52.520;13.332;2022-08-04T08:19:21;101105.03;;;29.96;37.55
19096;BME280;9680;52.520;13.332;2022-08-04T08:21:47;101107.03;;;30.02;37.29
19096;BME280;9680;52.520;13.332;2022-08-04T08:24:16;101090.03;;;30.10;36.94
19096;BME280;9680;52.520;13.332;2022-08-04T08:26:42;101095.88;;;30.13;36.35
19096;BME280;9680;52.520;13.332;2022-08-04T08:29:07;101089.44;;;30.22;36.64
19096;BME280;9680;52.520;13.332;2022-08-04T08:31:33;101096.59;;;30.30;36.34
19096;BME280;9680;52.520;13.332;2022-08-04T08:34:00;101081.59;;;30.36;36.15
19096;BME280;9680;52.520;13.332;2022-08-04T08:48:10;101083.47;;;30.89;36.11
19096;BME280;9680;52.520;13.332;2022-08-04T08:53:48;101081.91;;;31.09;34.82
19096;BME280;9680;52.520;13.332;2022-08-04T08:56:30;101078.97;;;31.19;34.52
19096;BME280;9680;52.520;13.332;2022-08-04T09:07:22;101071.19;;;31.61;33.98
19096;BME280;9680;52.520;13.332;2022-08-04T09:12:55;101078.41;;;31.76;33.53
19096;BME280;9680;52.520;13.332;2022-08-04T09:15:44;101076.88;;;31.88;33.20
19096;BME280;9680;52.520;13.332;2022-08-04T09:20:47;101078.91;;;32.08;32.10
19096;BME280;9680;52.520;13.332;2022-08-04T09:34:56;101063.91;;;32.42;31.24
19096;BME280;9680;52.520;13.332;2022-08-04T09:37:37;101071.19;;;32.48;31.03
19096;BME280;9680;52.520;13.332;2022-08-04T09:40:17;101066.75;;;32.62;31.31
19096;BME280;9680;52.520;13.332;2022-08-04T09:45:45;101068.47;;;32.77;31.35
19096;BME280;9680;52.520;13.332;2022-08-04T09:48:30;101061.81;;;32.73;30.67
19096;BME280;9680;52.520;13.332;2022-08-04T09:50:58;101065.78;;;32.77;30.66
19096;BME280;9680;52.520;13.332;2022-08-04T09:53:49;101053.56;;;32.81;30.28
19096;BME280;9680;52.520;13.332;2022-08-04T09:56:33;101057.53;;;32.85;30.80
19096;BME280;9680;52.520;13.332;2022-08-04T09:59:17;101059.06;;;32.94;30.83
19096;BME280;9680;52.520;13.332;2022-08-04T10:01:49;101054.75;;;33.07;30.79
19096;BME280;9680;52.520;13.332;2022-08-04T10:04:16;101056.47;;;33.15;30.36
19096;BME280;9680;52.520;13.332;2022-08-04T10:07:03;101050.47;;;33.26;30.37
19096;BME280;9680;52.520;13.332;2022-08-04T10:12:26;101047.09;;;33.59;29.67
19096;BME280;9680;52.520;13.332;2022-08-04T10:29:13;101042.59;;;34.00;28.50
19096;BME280;9680;52.520;13.332;2022-08-04T10:37:29;101026.59;;;34.05;28.12
19096;BME280;9680;52.520;13.332;2022-08-04T10:40:04;101025.75;;;34.05;28.01
19096;BME280;9680;52.520;13.332;2022-08-04T10:43:04;101016.81;;;34.11;28.62
19096;BME280;9680;52.520;13.332;2022-08-04T10:45:36;101027.00;;;34.16;28.54
19096;BME280;9680;52.520;13.332;2022-08-04T10:48:12;101015.38;;;34.15;28.41
19096;BME280;9680;52.520;13.332;2022-08-04T10:50:48;101016.63;;;34.19;28.56
19096;BME280;9680;52.520;13.332;2022-08-04T10:53:19;101020.78;;;34.15;28.31
19096;BME280;9680;52.520;13.332;2022-08-04T10:55:56;101009.75;;;34.17;28.30
19096;BME280;9680;52.520;13.332;2022-08-04T10:58:26;101013.69;;;34.21;28.19
19096;BME280;9680;52.520;13.332;2022-08-04T11:00:58;101012.00;;;34.33;28.38
19096;BME280;9680;52.520;13.332;2022-08-04T11:03:37;101004.31;;;34.44;28.20
19096;BME280;9680;52.520;13.332;2022-08-04T11:06:05;100998.28;;;34.55;27.63
19096;BME280;9680;52.520;13.332;2022-08-04T11:08:44;101007.59;;;34.66;27.55
19096;BME280;9680;52.520;13.332;2022-08-04T11:14:03;100997.78;;;34.78;27.52
19096;BME280;9680;52.520;13.332;2022-08-04T11:20:01;100992.34;;;34.85;26.32
19096;BME280;9680;52.520;13.332;2022-08-04T11:22:29;100977.59;;;34.81;26.30
19096;BME280;9680;52.520;13.332;2022-08-04T11:25:13;100992.78;;;34.89;26.98
19096;BME280;9680;52.520;13.332;2022-08-04T11:28:13;100988.56;;;34.99;26.67
19096;BME280;9680;52.520;13.332;2022-08-04T11:30:52;100990.41;;;35.12;27.21
19096;BME280;9680;52.520;13.332;2022-08-04T11:33:26;100986.84;;;35.12;26.30
19096;BME280;9680;52.520;13.332;2022-08-04T11:38:55;100977.81;;;35.32;26.95
19096;BME280;9680;52.520;13.332;2022-08-04T11:41:36;100980.00;;;35.41;26.79
19096;BME280;9680;52.520;13.332;2022-08-04T11:44:03;100976.53;;;35.34;26.59
19096;BME280;9680;52.520;13.332;2022-08-04T11:46:38;100972.56;;;35.37;26.42
19096;BME280;9680;52.520;13.332;2022-08-04T11:49:15;100968.75;;;35.45;26.61
19096;BME280;9680;52.520;13.332;2022-08-04T11:51:48;100968.34;;;35.48;26.28
19096;BME280;9680;52.520;13.332;2022-08-04T11:54:15;100979.19;;;35.41;26.23
19096;BME280;9680;52.520;13.332;2022-08-04T11:56:41;100969.19;;;35.41;26.01
19096;BME280;9680;52.520;13.332;2022-08-04T11:59:07;100978.34;;;35.40;26.62
19096;BME280;9680;52.520;13.332;2022-08-04T12:07:15;100970.91;;;35.93;25.05
19096;BME280;9680;52.520;13.332;2022-08-04T12:09:47;100976.81;;;36.09;24.82
19096;BME280;9680;52.520;13.332;2022-08-04T12:12:26;100967.22;;;36.32;24.68
19096;BME280;9680;52.520;13.332;2022-08-04T12:15:03;100980.03;;;36.43;24.52
19096;BME280;9680;52.520;13.332;2022-08-04T12:17:44;100975.78;;;36.54;24.18
19096;BME280;9680;52.520;13.332;2022-08-04T12:20:16;100974.88;;;36.60;23.71
19096;BME280;9680;52.520;13.332;2022-08-04T12:22:49;100970.66;;;36.64;23.78
19096;BME280;9680;52.520;13.332;2022-08-04T12:25:20;100958.19;;;36.75;23.63
19096;BME280;9680;52.520;13.332;2022-08-04T12:27:54;100951.88;;;36.81;23.67
19096;BME280;9680;52.520;13.332;2022-08-04T12:30:22;100962.00;;;36.86;23.55
19096;BME280;9680;52.520;13.332;2022-08-04T12:32:58;100959.09;;;36.87;23.44
19096;BME280;9680;52.520;13.332;2022-08-04T12:35:51;100955.78;;;36.85;23.63
19096;BME280;9680;52.520;13.332;2022-08-04T12:38:20;100955.38;;;36.82;23.71
19096;BME280;9680;52.520;13.332;2022-08-04T12:40:50;100943.41;;;36.71;23.59
19096;BME280;9680;52.520;13.332;2022-08-04T12:43:26;100936.91;;;36.60;23.86
19096;BME280;9680;52.520;13.332;2022-08-04T12:45:59;100944.28;;;36.53;23.90
19096;BME280;9680;52.520;13.332;2022-08-04T12:48:26;100940.72;;;36.52;24.12
19096;BME280;9680;52.520;13.332;2022-08-04T12:50:54;100940.06;;;36.57;23.70
19096;BME280;9680;52.520;13.332;2022-08-04T12:53:25;100928.66;;;36.67;24.08
19096;BME280;9680;52.520;13.332;2022-08-04T12:55:53;100940.41;;;36.79;23.66
19096;BME280;9680;52.520;13.332;2022-08-04T12:58:22;100916.59;;;36.81;23.37
19096;BME280;9680;52.520;13.332;2022-08-04T13:01:01;100927.94;;;36.90;23.90
19096;BME280;9680;52.520;13.332;2022-08-04T13:03:34;100921.69;;;36.90;23.38
19096;BME280;9680;52.520;13.332;2022-08-04T13:06:02;100926.88;;;36.91;23.67
19096;BME280;9680;52.520;13.332;2022-08-04T13:08:35;100924.75;;;36.93;23.00
19096;BME280;9680;52.520;13.332;2022-08-04T13:11:02;100915.63;;;37.06;22.61
19096;BME280;9680;52.520;13.332;2022-08-04T13:13:32;100915.16;;;37.09;22.30
19096;BME280;9680;52.520;13.332;2022-08-04T13:16:09;100920.69;;;37.03;21.98
19096;BME280;9680;52.520;13.332;2022-08-04T13:18:40;100908.56;;;37.05;22.11
19096;BME280;9680;52.520;13.332;2022-08-04T13:21:17;100914.09;;;37.10;21.94
19096;BME280;9680;52.520;13.332;2022-08-04T13:23:44;100907.88;;;37.22;21.85
19096;BME280;9680;52.520;13.332;2022-08-04T13:26:13;100911.91;;;37.19;21.38
19096;BME280;9680;52.520;13.332;2022-08-04T13:28:42;100911.41;;;37.10;21.59
19096;BME280;9680;52.520;13.332;2022-08-04T13:31:10;100916.31;;;37.01;21.42
19096;BME280;9680;52.520;13.332;2022-08-04T13:33:40;100910.59;;;36.91;20.98
19096;BME280;9680;52.520;13.332;2022-08-04T13:36:08;100904.44;;;36.84;21.47
19096;BME280;9680;52.520;13.332;2022-08-04T13:38:37;100892.56;;;36.97;20.96
19096;BME280;9680;52.520;13.332;2022-08-04T13:41:05;100894.50;;;37.08;21.46
19096;BME280;9680;52.520;13.332;2022-08-04T13:43:44;100898.09;;;37.21;21.26
19096;BME280;9680;52.520;13.332;2022-08-04T13:46:15;100889.84;;;37.27;20.82
19096;BME280;9680;52.520;13.332;2022-08-04T13:48:42;100895.75;;;37.36;21.19
19096;BME280;9680;52.520;13.332;2022-08-04T13:51:09;100891.31;;;37.54;21.18
19096;BME280;9680;52.520;13.332;2022-08-04T13:53:38;100884.81;;;37.67;20.95
19096;BME280;9680;52.520;13.332;2022-08-04T13:56:08;100878.31;;;37.80;20.91
19096;BME280;9680;52.520;13.332;2022-08-04T13:58:42;100887.53;;;37.79;20.99
19096;BME280;9680;52.520;13.332;2022-08-04T14:01:18;100877.84;;;37.71;21.13
19096;BME280;9680;52.520;13.332;2022-08-04T14:07:02;100876.38;;;37.44;20.69
19096;BME280;9680;52.520;13.332;2022-08-04T14:09:32;100872.00;;;37.43;20.81
19096;BME280;9680;52.520;13.332;2022-08-04T14:12:09;100859.88;;;37.46;20.88
19096;BME280;9680;52.520;13.332;2022-08-04T14:14:36;100861.31;;;37.49;20.30
19096;BME280;9680;52.520;13.332;2022-08-04T14:17:16;100848.34;;;37.51;20.70
19096;BME280;9680;52.520;13.332;2022-08-04T14:25:08;100852.34;;;37.48;20.22
19096;BME280;9680;52.520;13.332;2022-08-04T14:30:25;100855.41;;;37.52;20.37
19096;BME280;9680;52.520;13.332;2022-08-04T14:32:59;100839.47;;;37.55;19.87
19096;BME280;9680;52.520;13.332;2022-08-04T14:35:26;100843.34;;;37.59;19.82
19096;BME280;9680;52.520;13.332;2022-08-04T14:37:53;100837.22;;;37.52;19.20
19096;BME280;9680;52.520;13.332;2022-08-04T14:40:31;100832.84;;;37.51;19.06
19096;BME280;9680;52.520;13.332;2022-08-04T14:42:57;100839.13;;;37.52;19.32
19096;BME280;9680;52.520;13.332;2022-08-04T14:45:39;100843.44;;;37.41;19.66
19096;BME280;9680;52.520;13.332;2022-08-04T14:48:09;100845.22;;;37.35;19.28
19096;BME280;9680;52.520;13.332;2022-08-04T14:53:15;100843.22;;;37.30;19.98
19096;BME280;9680;52.520;13.332;2022-08-04T14:55:44;100839.53;;;37.25;20.07
19096;BME280;9680;52.520;13.332;2022-08-04T14:58:20;100833.97;;;37.20;20.47
19096;BME280;9680;52.520;13.332;2022-08-04T15:00:48;100837.06;;;37.23;20.42
19096;BME280;9680;52.520;13.332;2022-08-04T15:03:13;100823.72;;;37.22;20.43
19096;BME280;9680;52.520;13.332;2022-08-04T15:05:41;100822.31;;;37.19;20.23
19096;BME280;9680;52.520;13.332;2022-08-04T15:08:08;100829.28;;;37.15;20.97
19096;BME280;9680;52.520;13.332;2022-08-04T15:10:34;100823.09;;;37.08;21.08
19096;BME280;9680;52.520;13.332;2022-08-04T15:13:01;100821.44;;;37.07;20.95
19096;BME280;9680;52.520;13.332;2022-08-04T15:15:27;100818.88;;;37.12;21.36
19096;BME280;9680;52.520;13.332;2022-08-04T15:17:53;100825.25;;;37.18;21.10
19096;BME280;9680;52.520;13.332;2022-08-04T15:20:19;100816.06;;;37.30;20.69
19096;BME280;9680;52.520;13.332;2022-08-04T15:22:45;100819.97;;;37.35;20.76
19096;BME280;9680;52.520;13.332;2022-08-04T15:25:10;100812.28;;;37.32;20.39
19096;BME280;9680;52.520;13.332;2022-08-04T15:27:38;100806.25;;;37.29;20.44
19096;BME280;9680;52.520;13.332;2022-08-04T15:30:07;100810.03;;;37.28;20.73
19096;BME280;9680;52.520;13.332;2022-08-04T15:32:36;100802.00;;;37.22;20.90
19096;BME280;9680;52.520;13.332;2022-08-04T15:35:17;100802.72;;;37.17;21.01
19096;BME280;9680;52.520;13.332;2022-08-04T15:40:42;100802.72;;;37.17;21.18
19096;BME280;9680;52.520;13.332;2022-08-04T15:43:26;100796.81;;;37.08;21.16
19096;BME280;9680;52.520;13.332;2022-08-04T15:45:57;100793.44;;;36.94;21.37
19096;BME280;9680;52.520;13.332;2022-08-04T15:48:30;100801.31;;;36.84;21.21
19096;BME280;9680;52.520;13.332;2022-08-04T15:53:25;100795.56;;;36.92;21.37
19096;BME280;9680;52.520;13.332;2022-08-04T15:55:52;100795.75;;;37.09;21.27
19096;BME280;9680;52.520;13.332;2022-08-04T15:58:18;100792.56;;;37.24;20.85
19096;BME280;9680;52.520;13.332;2022-08-04T16:16:27;100777.69;;;37.03;21.65
19096;BME280;9680;52.520;13.332;2022-08-04T16:18:54;100776.81;;;36.91;21.67
19096;BME280;9680;52.520;13.332;2022-08-04T16:21:24;100780.59;;;36.90;21.76
19096;BME280;9680;52.520;13.332;2022-08-04T16:32:13;100790.56;;;36.77;22.40
19096;BME280;9680;52.520;13.332;2022-08-04T16:34:57;100777.22;;;36.64;22.48
19096;BME280;9680;52.520;13.332;2022-08-04T16:37:34;100782.16;;;36.55;22.13
19096;BME280;9680;52.520;13.332;2022-08-04T16:40:31;100777.25;;;36.45;22.07
19096;BME280;9680;52.520;13.332;2022-08-04T16:43:00;100779.38;;;36.43;22.14
19096;BME280;9680;52.520;13.332;2022-08-04T16:48:08;100773.69;;;36.33;22.29
19096;BME280;9680;52.520;13.332;2022-08-04T16:51:04;100766.09;;;36.23;22.48
19096;BME280;9680;52.520;13.332;2022-08-04T16:53:48;100772.88;;;36.13;22.72
19096;BME280;9680;52.520;13.332;2022-08-04T16:56:15;100779.88;;;36.03;22.95
19096;BME280;9680;52.520;13.332;2022-08-04T16:58:43;100774.59;;;35.89;23.19
19096;BME280;9680;52.520;13.332;2022-08-04T17:01:13;100776.34;;;35.83;22.73
19096;BME280;9680;52.520;13.332;2022-08-04T17:03:48;100771.75;;;35.84;22.96
19096;BME280;9680;52.520;13.332;2022-08-04T17:06:14;100775.06;;;35.86;22.89
19096;BME280;9680;52.520;13.332;2022-08-04T17:08:44;100769.34;;;35.76;23.04
19096;BME280;9680;52.520;13.332;2022-08-04T17:11:11;100774.22;;;35.67;23.23
19096;BME280;9680;52.520;13.332;2022-08-04T17:13:46;100777.03;;;35.60;23.07
19096;BME280;9680;52.520;13.332;2022-08-04T17:16:14;100770.84;;;35.53;23.37
19096;BME280;9680;52.520;13.332;2022-08-04T17:18:44;100766.34;;;35.40;23.92